^^
Saratoga-Weather Station Historical Data
Daily Summary for August 3, 2021 Units:  Metric    English   Both
Daily Weekly Monthly Yearly Custom
  High: Low: Average:
Temperature: 27.6 °C 12.6 °C 19.2 °C
Dew Point: 15.3 °C 11.3 °C 13.2 °C
Humidity: 93% 40% 71%
Wind Speed: 11.1km/h 0km/h 1.1km/h
Wind Gust: 12.9km/h - -
Wind- - SE
Pressure: 1020.7 hPa 1015.2 hPa -
Precipitation: 0.0 mm    
Historical Graphs
 
 
Tabular Data for August 3, 2021
Time Temperature Dew Point Pressure Wind Wind Speed Wind Gust Humidity Rainfall Rate (Hourly) solar
00:00 15.7 °C 12.8 °C 1020.7 hPa SSE 1.4 km/h 3.2 km/h 83% 0.0 mm 0 W/m2
00:05 15.6 °C 12.7 °C 1020.7 hPa Calm     83% 0.0 mm 0 W/m2
00:10 15.4 °C 12.7 °C 1020.7 hPa Calm   3.2 km/h 84% 0.0 mm 0 W/m2
00:15 15.2 °C 12.5 °C 1020.7 hPa Calm   1.6 km/h 84% 0.0 mm 0 W/m2
00:20 15.1 °C 12.6 °C 1020.7 hPa SSE 1.4 km/h 1.6 km/h 85% 0.0 mm 0 W/m2
00:25 14.9 °C 12.4 °C 1020.3 hPa Calm     85% 0.0 mm 0 W/m2
00:30 14.8 °C 12.5 °C 1020.3 hPa Calm     86% 0.0 mm 0 W/m2
00:35 14.8 °C 12.5 °C 1020.3 hPa Calm     86% 0.0 mm 0 W/m2
00:40 14.7 °C 12.4 °C 1020.3 hPa Calm     86% 0.0 mm 0 W/m2
00:45 14.6 °C 12.5 °C 1020.3 hPa Calm   3.2 km/h 87% 0.0 mm 0 W/m2
00:50 14.5 °C 12.4 °C 1020.3 hPa Calm     87% 0.0 mm 0 W/m2
00:55 14.4 °C 12.3 °C 1020.3 hPa SSE 3.2 km/h 3.2 km/h 87% 0.0 mm 0 W/m2
01:01 14.4 °C 12.4 °C 1020.3 hPa Calm     88% 0.0 mm 0 W/m2
01:06 14.4 °C 12.4 °C 1020.3 hPa Calm     88% 0.0 mm 0 W/m2
01:11 14.4 °C 12.4 °C 1020.3 hPa Calm   3.2 km/h 88% 0.0 mm 0 W/m2
01:16 14.3 °C 12.3 °C 1020.0 hPa Calm     88% 0.0 mm 0 W/m2
01:21 14.3 °C 12.3 °C 1020.0 hPa Calm     88% 0.0 mm 0 W/m2
01:26 14.3 °C 12.3 °C 1020.0 hPa Calm     88% 0.0 mm 0 W/m2
01:31 14.3 °C 12.3 °C 1020.0 hPa Calm     88% 0.0 mm 0 W/m2
01:36 14.3 °C 12.3 °C 1020.0 hPa Calm     88% 0.0 mm 0 W/m2
01:41 14.3 °C 12.3 °C 1020.0 hPa Calm     88% 0.0 mm 0 W/m2
01:46 14.2 °C 12.4 °C 1020.0 hPa Calm     89% 0.0 mm 0 W/m2
01:51 14.2 °C 12.4 °C 1020.0 hPa Calm     89% 0.0 mm 0 W/m2
01:56 14.3 °C 12.5 °C 1020.0 hPa Calm     89% 0.0 mm 0 W/m2
02:01 14.3 °C 12.5 °C 1020.0 hPa Calm     89% 0.0 mm 0 W/m2
02:06 14.2 °C 12.4 °C 1020.0 hPa Calm     89% 0.0 mm 0 W/m2
02:11 14.2 °C 12.4 °C 1020.0 hPa Calm     89% 0.0 mm 0 W/m2
02:16 14.1 °C 12.3 °C 1020.0 hPa Calm     89% 0.0 mm 0 W/m2
02:21 14.1 °C 12.3 °C 1019.6 hPa Calm     89% 0.0 mm 0 W/m2
02:26 14 °C 12.2 °C 1019.6 hPa Calm     89% 0.0 mm 0 W/m2
02:31 13.9 °C 12.1 °C 1019.6 hPa Calm     89% 0.0 mm 0 W/m2
02:36 13.9 °C 12.1 °C 1019.6 hPa Calm     89% 0.0 mm 0 W/m2
02:41 13.8 °C 12.2 °C 1019.6 hPa Calm     90% 0.0 mm 0 W/m2
02:46 13.8 °C 12.2 °C 1019.6 hPa Calm     90% 0.0 mm 0 W/m2
02:51 13.8 °C 12.2 °C 1019.6 hPa Calm     90% 0.0 mm 0 W/m2
02:56 13.8 °C 12.2 °C 1019.6 hPa Calm     90% 0.0 mm 0 W/m2
03:01 13.7 °C 12.1 °C 1019.6 hPa Calm     90% 0.0 mm 0 W/m2
03:06 13.8 °C 12.4 °C 1019.6 hPa Calm     91% 0.0 mm 0 W/m2
03:11 13.8 °C 12.4 °C 1019.6 hPa Calm     91% 0.0 mm 0 W/m2
03:16 13.8 °C 12.2 °C 1019.6 hPa Calm     90% 0.0 mm 0 W/m2
03:21 13.8 °C 12.2 °C 1019.6 hPa Calm     90% 0.0 mm 0 W/m2
03:26 13.8 °C 12.2 °C 1019.6 hPa Calm     90% 0.0 mm 0 W/m2
03:31 13.8 °C 12.2 °C 1019.6 hPa Calm     90% 0.0 mm 0 W/m2
03:36 13.8 °C 12.2 °C 1019.3 hPa Calm     90% 0.0 mm 0 W/m2
03:41 13.9 °C 12.3 °C 1019.3 hPa Calm     90% 0.0 mm 0 W/m2
03:46 14.1 °C 12.5 °C 1019.3 hPa Calm     90% 0.0 mm 0 W/m2
03:51 14.2 °C 12.4 °C 1019.3 hPa Calm     89% 0.0 mm 0 W/m2
03:56 14.1 °C 12.3 °C 1019.3 hPa Calm     89% 0.0 mm 0 W/m2
04:01 14.1 °C 12.3 °C 1019.3 hPa Calm     89% 0.0 mm 0 W/m2
04:07 13.9 °C 12.1 °C 1019.3 hPa Calm     89% 0.0 mm 0 W/m2
04:12 13.9 °C 12.1 °C 1019.3 hPa Calm     89% 0.0 mm 0 W/m2
04:17 13.8 °C 12 °C 1019.3 hPa Calm     89% 0.0 mm 0 W/m2
04:22 13.7 °C 11.9 °C 1019.3 hPa Calm     89% 0.0 mm 0 W/m2
04:27 13.7 °C 11.9 °C 1019.3 hPa Calm     89% 0.0 mm 0 W/m2
04:32 13.6 °C 12 °C 1019.3 hPa Calm     90% 0.0 mm 0 W/m2
04:37 13.6 °C 12 °C 1019.3 hPa Calm     90% 0.0 mm 0 W/m2
04:42 13.6 °C 12 °C 1019.3 hPa Calm     90% 0.0 mm 0 W/m2
04:47 13.6 °C 12.2 °C 1019.3 hPa Calm     91% 0.0 mm 0 W/m2
04:52 13.6 °C 12.2 °C 1019.3 hPa Calm     91% 0.0 mm 0 W/m2
04:57 13.7 °C 12.3 °C 1019.3 hPa Calm     91% 0.0 mm 0 W/m2
05:02 13.6 °C 12 °C 1019.3 hPa Calm     90% 0.0 mm 0 W/m2
05:07 13.6 °C 12 °C 1019.3 hPa Calm     90% 0.0 mm 0 W/m2
05:12 13.6 °C 12 °C 1019.3 hPa Calm     90% 0.0 mm 0 W/m2
05:17 13.6 °C 12 °C 1019.0 hPa Calm     90% 0.0 mm 0 W/m2
05:22 13.5 °C 11.9 °C 1019.3 hPa Calm     90% 0.0 mm 0 W/m2
05:27 13.4 °C 11.8 °C 1019.0 hPa Calm     90% 0.0 mm 0 W/m2
05:32 13.4 °C 11.8 °C 1019.0 hPa Calm     90% 0.0 mm 0 W/m2
05:37 13.3 °C 11.7 °C 1019.0 hPa Calm     90% 0.0 mm 0 W/m2
05:42 13.3 °C 11.7 °C 1019.0 hPa Calm     90% 0.0 mm 0 W/m2
05:47 13.2 °C 11.8 °C 1019.0 hPa Calm     91% 0.0 mm 0 W/m2
05:52 13.2 °C 11.8 °C 1019.0 hPa Calm     91% 0.0 mm 0 W/m2
05:57 13.1 °C 11.7 °C 1019.0 hPa Calm     91% 0.0 mm 0 W/m2
06:02 13.1 °C 11.7 °C 1019.0 hPa Calm     91% 0.0 mm 0 W/m2
06:07 13 °C 11.6 °C 1019.0 hPa Calm     91% 0.0 mm 0 W/m2
06:12 13 °C 11.6 °C 1019.0 hPa Calm     91% 0.0 mm 0 W/m2
06:17 12.9 °C 11.5 °C 1019.0 hPa Calm     91% 0.0 mm 0 W/m2
06:22 12.9 °C 11.5 °C 1019.0 hPa Calm     91% 0.0 mm 0 W/m2
06:27 12.8 °C 11.4 °C 1019.0 hPa Calm     91% 0.0 mm 0 W/m2
06:32 12.7 °C 11.3 °C 1019.0 hPa Calm     91% 0.0 mm 0 W/m2
06:37 12.7 °C 11.3 °C 1019.0 hPa Calm     91% 0.0 mm 0 W/m2
06:42 12.6 °C 11.3 °C 1019.0 hPa Calm     92% 0.0 mm 0 W/m2
06:47 12.6 °C 11.3 °C 1019.0 hPa Calm     92% 0.0 mm 0 W/m2
06:52 12.6 °C 11.3 °C 1019.0 hPa Calm     92% 0.0 mm 0 W/m2
06:57 12.6 °C 11.3 °C 1019.0 hPa Calm     92% 0.0 mm 5 W/m2
07:02 12.6 °C 11.3 °C 1019.0 hPa Calm     92% 0.0 mm 7 W/m2
07:07 12.6 °C 11.3 °C 1019.0 hPa Calm     92% 0.0 mm 9 W/m2
07:12 12.6 °C 11.5 °C 1019.0 hPa Calm     93% 0.0 mm 11 W/m2
07:17 12.6 °C 11.5 °C 1019.0 hPa Calm     93% 0.0 mm 12 W/m2
07:22 12.6 °C 11.5 °C 1019.0 hPa Calm     93% 0.0 mm 14 W/m2
07:27 12.7 °C 11.6 °C 1019.0 hPa Calm     93% 0.0 mm 16 W/m2
07:32 12.7 °C 11.6 °C 1019.3 hPa Calm     93% 0.0 mm 19 W/m2
07:37 12.8 °C 11.7 °C 1019.3 hPa Calm     93% 0.0 mm 21 W/m2
07:42 12.9 °C 11.8 °C 1019.3 hPa Calm     93% 0.0 mm 21 W/m2
07:47 13 °C 11.7 °C 1019.3 hPa Calm     92% 0.0 mm 23 W/m2
07:52 13.1 °C 11.8 °C 1019.3 hPa Calm     92% 0.0 mm 25 W/m2
07:57 13.2 °C 11.9 °C 1019.0 hPa Calm     92% 0.0 mm 26 W/m2
08:02 13.2 °C 11.9 °C 1019.3 hPa Calm     92% 0.0 mm 28 W/m2
08:07 13.4 °C 12 °C 1019.3 hPa Calm     91% 0.0 mm 30 W/m2
08:12 13.5 °C 12.1 °C 1019.0 hPa Calm     91% 0.0 mm 33 W/m2
08:17 13.6 °C 12 °C 1019.3 hPa Calm     90% 0.0 mm 74 W/m2
08:22 13.8 °C 12.2 °C 1019.3 hPa Calm     90% 0.0 mm 123 W/m2
08:27 13.9 °C 12.1 °C 1019.3 hPa Calm     89% 0.0 mm 149 W/m2
08:32 14.1 °C 12.1 °C 1019.3 hPa Calm     88% 0.0 mm 165 W/m2
08:37 14.3 °C 12.3 °C 1019.3 hPa Calm     88% 0.0 mm 179 W/m2
08:42 14.5 °C 12.4 °C 1019.3 hPa Calm     87% 0.0 mm 195 W/m2
08:47 14.7 °C 12.6 °C 1019.0 hPa Calm     87% 0.0 mm 209 W/m2
08:52 14.9 °C 12.6 °C 1019.0 hPa Calm     86% 0.0 mm 223 W/m2
08:57 15.2 °C 12.7 °C 1019.0 hPa Calm     85% 0.0 mm 237 W/m2
09:02 15.4 °C 12.9 °C 1019.0 hPa Calm     85% 0.0 mm 250 W/m2
09:07 15.5 °C 13 °C 1019.0 hPa Calm     85% 0.0 mm 51 W/m2
09:12 15.6 °C 12.9 °C 1019.3 hPa Calm     84% 0.0 mm 47 W/m2
09:17 15.7 °C 12.8 °C 1019.0 hPa Calm     83% 0.0 mm 292 W/m2
09:22 15.9 °C 13 °C 1019.3 hPa Calm     83% 0.0 mm 306 W/m2
09:27 16.1 °C 13 °C 1019.0 hPa NE 4.7 km/h 4.8 km/h 82% 0.0 mm 323 W/m2
09:32 16.3 °C 13 °C 1019.0 hPa ENE 1.4 km/h 6.4 km/h 81% 0.0 mm 336 W/m2
09:37 16.5 °C 13.4 °C 1019.0 hPa ESE 1.4 km/h 4.8 km/h 82% 0.0 mm 353 W/m2
09:42 16.9 °C 13.2 °C 1019.0 hPa East 4.7 km/h 6.4 km/h 79% 0.0 mm 364 W/m2
09:47 16.9 °C 13 °C 1019.0 hPa East 3.2 km/h 4.8 km/h 78% 0.0 mm 378 W/m2
09:52 17.2 °C 13.5 °C 1019.0 hPa SSE 1.4 km/h 3.2 km/h 79% 0.0 mm 390 W/m2
09:57 17.6 °C 13.5 °C 1019.0 hPa NE 3.2 km/h 6.4 km/h 77% 0.0 mm 404 W/m2
10:02 17.8 °C 13.5 °C 1019.0 hPa East 11.1 km/h 11.3 km/h 76% 0.0 mm 417 W/m2
10:07 17.8 °C 13.3 °C 1019.0 hPa NE 3.2 km/h 4.8 km/h 75% 0.0 mm 431 W/m2
10:12 17.9 °C 13.4 °C 1019.0 hPa NE 3.2 km/h 11.3 km/h 75% 0.0 mm 441 W/m2
10:17 18.2 °C 13.7 °C 1019.0 hPa NE 1.4 km/h 4.8 km/h 75% 0.0 mm 452 W/m2
10:23 18.3 °C 13.6 °C 1019.0 hPa South 1.4 km/h 1.6 km/h 74% 0.0 mm 468 W/m2
10:28 18.5 °C 13.8 °C 1019.0 hPa Calm   4.8 km/h 74% 0.0 mm 480 W/m2
10:33 18.8 °C 13.9 °C 1019.0 hPa ENE 3.2 km/h 6.4 km/h 73% 0.0 mm 492 W/m2
10:38 18.9 °C 13.7 °C 1019.0 hPa ENE 3.2 km/h 4.8 km/h 72% 0.0 mm 503 W/m2
10:43 18.9 °C 13.7 °C 1019.0 hPa Calm   4.8 km/h 72% 0.0 mm 513 W/m2
10:48 19.2 °C 14.2 °C 1019.3 hPa East 1.4 km/h 4.8 km/h 73% 0.0 mm 524 W/m2
10:53 19.3 °C 14.1 °C 1019.3 hPa Calm   3.2 km/h 72% 0.0 mm 534 W/m2
10:58 19.4 °C 14.2 °C 1019.3 hPa NE 3.2 km/h 6.4 km/h 72% 0.0 mm 545 W/m2
11:03 19.3 °C 14.1 °C 1019.3 hPa NNE 1.4 km/h 4.8 km/h 72% 0.0 mm 555 W/m2
11:08 19.4 °C 14.2 °C 1019.3 hPa NW 1.4 km/h 6.4 km/h 72% 0.0 mm 566 W/m2
11:13 19.7 °C 14.3 °C 1019.0 hPa Calm   4.8 km/h 71% 0.0 mm 578 W/m2
11:18 19.9 °C 14.5 °C 1019.0 hPa ENE 1.4 km/h 1.6 km/h 71% 0.0 mm 587 W/m2
11:23 20.1 °C 14.5 °C 1019.0 hPa NE 1.4 km/h 4.8 km/h 70% 0.0 mm 594 W/m2
11:28 20.1 °C 14.5 °C 1019.0 hPa North 8 km/h 8 km/h 70% 0.0 mm 606 W/m2
11:33 20.3 °C 14.9 °C 1019.0 hPa Calm   3.2 km/h 71% 0.0 mm 617 W/m2
11:38 20.6 °C 14.9 °C 1019.0 hPa Calm   3.2 km/h 70% 0.0 mm 624 W/m2
11:43 20.8 °C 14.7 °C 1019.0 hPa NNW 3.2 km/h 3.2 km/h 68% 0.0 mm 631 W/m2
11:48 20.8 °C 14.4 °C 1019.0 hPa NE 8 km/h 8 km/h 67% 0.0 mm 642 W/m2
11:53 20.8 °C 14.4 °C 1019.0 hPa NE 1.4 km/h 6.4 km/h 67% 0.0 mm 652 W/m2
11:58 20.9 °C 14.8 °C 1019.0 hPa NE 4.7 km/h 6.4 km/h 68% 0.0 mm 661 W/m2
12:03 21.3 °C 14.7 °C 1019.0 hPa ESE 4.7 km/h 4.8 km/h 66% 0.0 mm 666 W/m2
12:08 21.8 °C 14.9 °C 1019.0 hPa Calm   3.2 km/h 65% 0.0 mm 675 W/m2
12:13 22.2 °C 14.6 °C 1018.6 hPa ESE 3.2 km/h 4.8 km/h 62% 0.0 mm 687 W/m2
12:18 22.6 °C 14.9 °C 1018.6 hPa SE 1.4 km/h 9.7 km/h 62% 0.0 mm 691 W/m2
12:23 22.8 °C 14.6 °C 1018.6 hPa NE 4.7 km/h 6.4 km/h 60% 0.0 mm 698 W/m2
12:28 23 °C 15.3 °C 1018.6 hPa West 1.4 km/h 9.7 km/h 62% 0.0 mm 703 W/m2
12:33 23.2 °C 15 °C 1018.6 hPa ENE 4.7 km/h 6.4 km/h 60% 0.0 mm 707 W/m2
12:38 23.4 °C 14.9 °C 1018.6 hPa NE 3.2 km/h 8 km/h 59% 0.0 mm 712 W/m2
12:43 23.4 °C 14.4 °C 1018.6 hPa ENE 4.7 km/h 9.7 km/h 57% 0.0 mm 719 W/m2
12:48 23.3 °C 14.3 °C 1018.6 hPa South 3.2 km/h 4.8 km/h 57% 0.0 mm 719 W/m2
12:53 23.4 °C 14.7 °C 1018.3 hPa ENE 3.2 km/h 4.8 km/h 58% 0.0 mm 719 W/m2
12:58 23.6 °C 14.6 °C 1018.3 hPa ENE 7.9 km/h 12.9 km/h 57% 0.0 mm 728 W/m2
13:03 23.8 °C 15 °C 1018.3 hPa ESE 1.4 km/h 4.8 km/h 58% 0.0 mm 726 W/m2
13:08 24 °C 14.1 °C 1018.3 hPa ENE 4.7 km/h 4.8 km/h 54% 0.0 mm 733 W/m2
13:13 24.2 °C 14.6 °C 1018.3 hPa ENE 3.2 km/h 9.7 km/h 55% 0.0 mm 733 W/m2
13:18 24.3 °C 14.7 °C 1018.3 hPa East 3.2 km/h 4.8 km/h 55% 0.0 mm 737 W/m2
13:23 24.5 °C 14.6 °C 1018.3 hPa Calm   8 km/h 54% 0.0 mm 740 W/m2
13:28 24.7 °C 14.2 °C 1018.0 hPa NE 1.4 km/h 6.4 km/h 52% 0.0 mm 742 W/m2
13:33 24.8 °C 14.3 °C 1018.0 hPa ENE 4.7 km/h 8 km/h 52% 0.0 mm 744 W/m2
13:38 24.8 °C 14.3 °C 1018.0 hPa Calm   3.2 km/h 52% 0.0 mm 742 W/m2
13:43 25 °C 13.9 °C 1018.0 hPa ESE 1.4 km/h 8 km/h 50% 0.0 mm 745 W/m2
13:48 25.1 °C 14.3 °C 1018.0 hPa North 1.4 km/h 11.3 km/h 51% 0.0 mm 747 W/m2
13:53 25 °C 13.9 °C 1018.0 hPa SE 3.2 km/h 8 km/h 50% 0.0 mm 744 W/m2
13:58 25.1 °C 13.9 °C 1018.0 hPa NW 1.4 km/h 11.3 km/h 50% 0.0 mm 744 W/m2
14:03 25.3 °C 14.1 °C 1018.0 hPa SW 3.2 km/h 3.2 km/h 50% 0.0 mm 747 W/m2
14:08 25.3 °C 13.8 °C 1018.0 hPa ENE 3.2 km/h 8 km/h 49% 0.0 mm 744 W/m2
14:13 25.4 °C 14.5 °C 1017.6 hPa NE 4.7 km/h 6.4 km/h 51% 0.0 mm 742 W/m2
14:18 25.5 °C 14 °C 1017.6 hPa Calm   8 km/h 49% 0.0 mm 742 W/m2
14:23 25.4 °C 13.6 °C 1017.6 hPa North 3.2 km/h 3.2 km/h 48% 0.0 mm 744 W/m2
14:28 25.4 °C 14.2 °C 1017.6 hPa ESE 1.4 km/h 6.4 km/h 50% 0.0 mm 742 W/m2
14:33 25.6 °C 14.1 °C 1017.6 hPa Calm   4.8 km/h 49% 0.0 mm 738 W/m2
14:38 25.6 °C 13.8 °C 1017.6 hPa SE 3.2 km/h 4.8 km/h 48% 0.0 mm 733 W/m2
14:43 25.7 °C 14.2 °C 1017.6 hPa ESE 3.2 km/h 4.8 km/h 49% 0.0 mm 733 W/m2
14:48 25.8 °C 13.6 °C 1017.6 hPa Calm   3.2 km/h 47% 0.0 mm 728 W/m2
14:53 25.9 °C 14 °C 1017.6 hPa East 4.7 km/h 11.3 km/h 48% 0.0 mm 724 W/m2
14:58 26.1 °C 14.9 °C 1017.6 hPa Calm   6.4 km/h 50% 0.0 mm 719 W/m2
15:03 26.3 °C 13.8 °C 1017.6 hPa East 1.4 km/h 4.8 km/h 46% 0.0 mm 714 W/m2
15:08 26.3 °C 14.7 °C 1017.3 hPa ESE 3.2 km/h 4.8 km/h 49% 0.0 mm 708 W/m2
15:13 26.3 °C 14.7 °C 1017.3 hPa Calm   1.6 km/h 49% 0.0 mm 703 W/m2
15:18 26.5 °C 14.3 °C 1017.3 hPa ENE 1.4 km/h 3.2 km/h 47% 0.0 mm 698 W/m2
15:23 26.7 °C 14.8 °C 1017.3 hPa East 3.2 km/h 6.4 km/h 48% 0.0 mm 689 W/m2
15:28 26.6 °C 15 °C 1016.9 hPa East 4.7 km/h 4.8 km/h 49% 0.0 mm 684 W/m2
15:33 26.5 °C 13.9 °C 1016.9 hPa ESE 4.7 km/h 6.4 km/h 46% 0.0 mm 675 W/m2
15:38 26.7 °C 15.1 °C 1016.9 hPa SSW 3.2 km/h 4.8 km/h 49% 0.0 mm 664 W/m2
15:43 26.6 °C 14.7 °C 1016.9 hPa Calm   6.4 km/h 48% 0.0 mm 659 W/m2
15:48 26.7 °C 13.8 °C 1016.9 hPa Calm   6.4 km/h 45% 0.0 mm 652 W/m2
15:53 26.6 °C 13.7 °C 1016.9 hPa East 1.4 km/h 1.6 km/h 45% 0.0 mm 640 W/m2
15:58 26.5 °C 13.6 °C 1016.9 hPa WNW 3.2 km/h 3.2 km/h 45% 0.0 mm 638 W/m2
16:03 26.4 °C 14.2 °C 1016.6 hPa WSW 3.2 km/h 3.2 km/h 47% 0.0 mm 629 W/m2
16:09 26.5 °C 15.2 °C 1016.6 hPa Calm   3.2 km/h 50% 0.0 mm 617 W/m2
16:14 26.6 °C 14.4 °C 1016.6 hPa East 1.4 km/h 3.2 km/h 47% 0.0 mm 610 W/m2
16:19 26.7 °C 14.1 °C 1016.6 hPa SE 3.2 km/h 3.2 km/h 46% 0.0 mm 599 W/m2
16:24 26.9 °C 15 °C 1016.6 hPa Calm   4.8 km/h 48% 0.0 mm 587 W/m2
16:29 27.2 °C 14.2 °C 1016.3 hPa Calm   3.2 km/h 45% 0.0 mm 578 W/m2
16:34 27.3 °C 14 °C 1016.3 hPa ESE 1.4 km/h 6.4 km/h 44% 0.0 mm 568 W/m2
16:39 27.4 °C 14.1 °C 1016.3 hPa ESE 1.4 km/h 4.8 km/h 44% 0.0 mm 557 W/m2
16:44 27.6 °C 14.2 °C 1016.3 hPa SW 1.4 km/h 6.4 km/h 44% 0.0 mm 541 W/m2
16:49 27.6 °C 14.6 °C 1016.3 hPa SSE 1.4 km/h 6.4 km/h 45% 0.0 mm 526 W/m2
16:54 27.5 °C 13.8 °C 1016.3 hPa Calm   3.2 km/h 43% 0.0 mm 519 W/m2
16:59 27.4 °C 14.1 °C 1016.3 hPa SE 4.7 km/h 9.7 km/h 44% 0.0 mm 508 W/m2
17:04 27.4 °C 13.4 °C 1016.3 hPa North 3.2 km/h 4.8 km/h 42% 0.0 mm 490 W/m2
17:09 27.5 °C 12.7 °C 1016.3 hPa ENE 1.4 km/h 9.7 km/h 40% 0.0 mm 478 W/m2
17:14 27.5 °C 13.1 °C 1016.3 hPa NNW 1.4 km/h 4.8 km/h 41% 0.0 mm 462 W/m2
17:19 27.5 °C 13.4 °C 1015.9 hPa SE 3.2 km/h 4.8 km/h 42% 0.0 mm 448 W/m2
17:24 27.4 °C 13.7 °C 1016.3 hPa SE 1.4 km/h 3.2 km/h 43% 0.0 mm 439 W/m2
17:29 27.3 °C 13.6 °C 1015.9 hPa Calm   4.8 km/h 43% 0.0 mm 422 W/m2
17:34 27.4 °C 14.1 °C 1015.9 hPa WSW 1.4 km/h 3.2 km/h 44% 0.0 mm 404 W/m2
17:39 27.4 °C 14.1 °C 1015.9 hPa NNW 3.2 km/h 3.2 km/h 44% 0.0 mm 390 W/m2
17:44 27.2 °C 13.2 °C 1015.9 hPa West 9.7 km/h 9.7 km/h 42% 0.0 mm 380 W/m2
17:49 27.1 °C 12.7 °C 1015.9 hPa Calm   6.4 km/h 41% 0.0 mm 360 W/m2
17:54 27.1 °C 13.4 °C 1015.9 hPa Calm   3.2 km/h 43% 0.0 mm 348 W/m2
17:59 27.2 °C 13.2 °C 1015.6 hPa ENE 3.2 km/h 4.8 km/h 42% 0.0 mm 334 W/m2
18:04 27.1 °C 13.1 °C 1015.9 hPa Calm   4.8 km/h 42% 0.0 mm 322 W/m2
18:09 27.1 °C 13.4 °C 1015.9 hPa East 3.2 km/h 11.3 km/h 43% 0.0 mm 308 W/m2
18:14 27.1 °C 13.1 °C 1015.6 hPa NNW 1.4 km/h 3.2 km/h 42% 0.0 mm 294 W/m2
18:19 27.1 °C 12.7 °C 1015.6 hPa ENE 1.4 km/h 9.7 km/h 41% 0.0 mm 274 W/m2
18:24 27.2 °C 13.2 °C 1015.6 hPa Calm   3.2 km/h 42% 0.0 mm 262 W/m2
18:29 26.9 °C 12.5 °C 1015.6 hPa ESE 3.2 km/h 6.4 km/h 41% 0.0 mm 250 W/m2
18:34 26.8 °C 13.2 °C 1015.6 hPa Calm   1.6 km/h 43% 0.0 mm 236 W/m2
18:39 26.7 °C 13.4 °C 1015.6 hPa NE 4.7 km/h 6.4 km/h 44% 0.0 mm 218 W/m2
18:44 26.6 °C 13 °C 1015.6 hPa NW 1.4 km/h 4.8 km/h 43% 0.0 mm 202 W/m2
18:49 26.6 °C 13.3 °C 1015.6 hPa Calm     44% 0.0 mm 190 W/m2
18:54 26.5 °C 13.6 °C 1015.6 hPa Calm   1.6 km/h 45% 0.0 mm 174 W/m2
18:59 26.2 °C 13.3 °C 1015.6 hPa North 1.4 km/h 4.8 km/h 45% 0.0 mm 158 W/m2
19:04 26.1 °C 14.2 °C 1015.6 hPa SSE 3.2 km/h 3.2 km/h 48% 0.0 mm 144 W/m2
19:09 25.7 °C 14.2 °C 1015.6 hPa NW 1.4 km/h 3.2 km/h 49% 0.0 mm 130 W/m2
19:14 25.2 °C 13.1 °C 1015.6 hPa ENE 1.4 km/h 3.2 km/h 47% 0.0 mm 113 W/m2
19:19 25.1 °C 14.3 °C 1015.6 hPa NE 1.4 km/h 3.2 km/h 51% 0.0 mm 95 W/m2
19:24 24.8 °C 14.6 °C 1015.6 hPa Calm   3.2 km/h 53% 0.0 mm 79 W/m2
19:29 24.4 °C 14.5 °C 1015.6 hPa SE 1.4 km/h 1.6 km/h 54% 0.0 mm 25 W/m2
19:34 24 °C 14.7 °C 1015.6 hPa SE 1.4 km/h 3.2 km/h 56% 0.0 mm 23 W/m2
19:39 23.6 °C 14.6 °C 1015.6 hPa Calm   3.2 km/h 57% 0.0 mm 19 W/m2
19:44 23.2 °C 14.5 °C 1015.2 hPa SE 1.4 km/h 1.6 km/h 58% 0.0 mm 18 W/m2
19:49 22.8 °C 14.4 °C 1015.6 hPa Calm   3.2 km/h 59% 0.0 mm 14 W/m2
19:54 22.5 °C 14.3 °C 1015.6 hPa Calm     60% 0.0 mm 12 W/m2
19:59 22.2 °C 14.3 °C 1015.6 hPa Calm   3.2 km/h 61% 0.0 mm 11 W/m2
20:04 21.8 °C 14.2 °C 1015.6 hPa Calm     62% 0.0 mm 9 W/m2
20:09 21.5 °C 14.2 °C 1015.6 hPa SE 3.2 km/h 3.2 km/h 63% 0.0 mm 5 W/m2
20:14 21.2 °C 14.1 °C 1015.6 hPa Calm     64% 0.0 mm 5 W/m2
20:19 20.8 °C 14 °C 1015.6 hPa Calm     65% 0.0 mm 0 W/m2
20:24 20.4 °C 14.1 °C 1015.6 hPa Calm     67% 0.0 mm 0 W/m2
20:29 20.2 °C 13.9 °C 1015.6 hPa Calm     67% 0.0 mm 0 W/m2
20:34 19.9 °C 13.8 °C 1015.9 hPa Calm     68% 0.0 mm 0 W/m2
20:39 19.7 °C 13.9 °C 1015.9 hPa Calm     69% 0.0 mm 0 W/m2
20:44 19.4 °C 13.8 °C 1015.9 hPa Calm     70% 0.0 mm 0 W/m2
20:49 19.3 °C 13.9 °C 1015.9 hPa Calm   1.6 km/h 71% 0.0 mm 0 W/m2
20:54 19.1 °C 13.9 °C 1015.9 hPa Calm     72% 0.0 mm 0 W/m2
20:59 18.9 °C 13.7 °C 1015.9 hPa Calm   1.6 km/h 72% 0.0 mm 0 W/m2
21:04 18.7 °C 14 °C 1015.9 hPa Calm     74% 0.0 mm 0 W/m2
21:10 18.6 °C 13.9 °C 1016.3 hPa Calm     74% 0.0 mm 0 W/m2
21:15 18.4 °C 13.9 °C 1016.3 hPa Calm     75% 0.0 mm 0 W/m2
21:20 18.3 °C 14 °C 1015.9 hPa Calm     76% 0.0 mm 0 W/m2
21:25 18.1 °C 13.8 °C 1016.3 hPa Calm     76% 0.0 mm 0 W/m2
21:30 17.9 °C 13.8 °C 1015.9 hPa Calm     77% 0.0 mm 0 W/m2
21:35 17.8 °C 13.9 °C 1016.3 hPa Calm     78% 0.0 mm 0 W/m2
21:40 17.7 °C 13.8 °C 1016.3 hPa Calm     78% 0.0 mm 0 W/m2
21:45 17.5 °C 13.6 °C 1016.3 hPa Calm     78% 0.0 mm 0 W/m2
21:50 17.4 °C 13.7 °C 1016.3 hPa Calm     79% 0.0 mm 0 W/m2
Juneau County Weather
Compliments of Weather Underground - 2 mb